sensor_id;sensor_type;location;lat;lon;timestamp;temperature;humidity
8152;DHT22;4117;53.622;9.958;2023-09-08T00:01:30;18.30;1.00
8152;DHT22;4117;53.622;9.958;2023-09-08T00:03:57;18.30;1.00
8152;DHT22;4117;53.622;9.958;2023-09-08T00:06:24;18.30;1.00
8152;DHT22;4117;53.622;9.958;2023-09-08T00:08:52;18.20;1.00
8152;DHT22;4117;53.622;9.958;2023-09-08T00:11:19;18.20;1.00
8152;DHT22;4117;53.622;9.958;2023-09-08T00:13:46;18.20;1.00
8152;DHT22;4117;53.622;9.958;2023-09-08T00:16:17;18.20;1.00
8152;DHT22;4117;53.622;9.958;2023-09-08T00:18:44;18.20;1.00
8152;DHT22;4117;53.622;9.958;2023-09-08T00:21:11;18.20;1.00
8152;DHT22;4117;53.622;9.958;2023-09-08T00:23:38;18.10;1.00
8152;DHT22;4117;53.622;9.958;2023-09-08T00:26:06;18.10;1.00
8152;DHT22;4117;53.622;9.958;2023-09-08T00:28:33;18.10;1.00
8152;DHT22;4117;53.622;9.958;2023-09-08T00:31:00;18.10;1.00
8152;DHT22;4117;53.622;9.958;2023-09-08T00:33:27;18.00;1.00
8152;DHT22;4117;53.622;9.958;2023-09-08T00:35:54;18.00;1.00
8152;DHT22;4117;53.622;9.958;2023-09-08T00:38:23;18.00;1.00
8152;DHT22;4117;53.622;9.958;2023-09-08T00:40:50;18.00;1.00
8152;DHT22;4117;53.622;9.958;2023-09-08T00:43:18;18.00;1.00
8152;DHT22;4117;53.622;9.958;2023-09-08T00:45:45;17.90;1.00
8152;DHT22;4117;53.622;9.958;2023-09-08T00:48:13;17.90;1.00
8152;DHT22;4117;53.622;9.958;2023-09-08T00:50:40;17.90;1.00
8152;DHT22;4117;53.622;9.958;2023-09-08T00:53:08;17.90;1.00
8152;DHT22;4117;53.622;9.958;2023-09-08T00:55:35;17.80;1.00
8152;DHT22;4117;53.622;9.958;2023-09-08T00:58:03;17.80;1.00
8152;DHT22;4117;53.622;9.958;2023-09-08T01:00:31;17.80;1.00
8152;DHT22;4117;53.622;9.958;2023-09-08T01:02:58;17.70;1.00
8152;DHT22;4117;53.622;9.958;2023-09-08T01:05:26;17.70;1.00
8152;DHT22;4117;53.622;9.958;2023-09-08T01:07:53;17.70;1.00
8152;DHT22;4117;53.622;9.958;2023-09-08T01:10:21;17.60;1.00
8152;DHT22;4117;53.622;9.958;2023-09-08T01:12:48;17.60;1.00
8152;DHT22;4117;53.622;9.958;2023-09-08T01:15:15;17.50;1.00
8152;DHT22;4117;53.622;9.958;2023-09-08T01:17:44;17.50;1.00
8152;DHT22;4117;53.622;9.958;2023-09-08T01:20:17;17.50;1.00
8152;DHT22;4117;53.622;9.958;2023-09-08T01:23:03;17.40;1.00
8152;DHT22;4117;53.622;9.958;2023-09-08T01:25:37;17.40;1.00
8152;DHT22;4117;53.622;9.958;2023-09-08T01:28:06;17.30;1.00
8152;DHT22;4117;53.622;9.958;2023-09-08T01:30:34;17.20;1.00
8152;DHT22;4117;53.622;9.958;2023-09-08T01:33:02;17.20;1.00
8152;DHT22;4117;53.622;9.958;2023-09-08T01:35:29;17.10;1.00
8152;DHT22;4117;53.622;9.958;2023-09-08T01:37:56;17.10;1.00
8152;DHT22;4117;53.622;9.958;2023-09-08T01:40:23;17.10;1.00
8152;DHT22;4117;53.622;9.958;2023-09-08T01:42:52;17.00;1.00
8152;DHT22;4117;53.622;9.958;2023-09-08T01:45:19;17.00;1.00
8152;DHT22;4117;53.622;9.958;2023-09-08T01:47:48;16.90;1.00
8152;DHT22;4117;53.622;9.958;2023-09-08T01:50:15;16.90;1.00
8152;DHT22;4117;53.622;9.958;2023-09-08T01:52:47;16.90;1.00
8152;DHT22;4117;53.622;9.958;2023-09-08T01:55:14;16.80;1.00
8152;DHT22;4117;53.622;9.958;2023-09-08T01:57:41;16.80;1.00
8152;DHT22;4117;53.622;9.958;2023-09-08T02:00:14;16.70;1.00
8152;DHT22;4117;53.622;9.958;2023-09-08T02:02:44;16.60;1.00
8152;DHT22;4117;53.622;9.958;2023-09-08T02:05:11;16.60;1.00
8152;DHT22;4117;53.622;9.958;2023-09-08T02:07:38;16.50;1.00
8152;DHT22;4117;53.622;9.958;2023-09-08T02:10:06;16.50;1.00
8152;DHT22;4117;53.622;9.958;2023-09-08T02:12:34;16.50;1.00
8152;DHT22;4117;53.622;9.958;2023-09-08T02:15:01;16.40;1.00
8152;DHT22;4117;53.622;9.958;2023-09-08T02:17:30;16.40;1.00
8152;DHT22;4117;53.622;9.958;2023-09-08T02:19:57;16.40;1.00
8152;DHT22;4117;53.622;9.958;2023-09-08T02:22:24;16.40;1.00
8152;DHT22;4117;53.622;9.958;2023-09-08T02:24:52;16.30;1.00
8152;DHT22;4117;53.622;9.958;2023-09-08T02:27:19;16.30;1.00
8152;DHT22;4117;53.622;9.958;2023-09-08T02:29:46;16.20;1.00
8152;DHT22;4117;53.622;9.958;2023-09-08T02:32:13;16.20;1.00
8152;DHT22;4117;53.622;9.958;2023-09-08T02:34:41;16.20;1.00
8152;DHT22;4117;53.622;9.958;2023-09-08T02:37:08;16.10;1.00
8152;DHT22;4117;53.622;9.958;2023-09-08T02:39:35;16.10;1.00
8152;DHT22;4117;53.622;9.958;2023-09-08T02:42:03;16.10;1.00
8152;DHT22;4117;53.622;9.958;2023-09-08T02:44:32;16.00;1.00
8152;DHT22;4117;53.622;9.958;2023-09-08T02:46:59;16.00;1.00
8152;DHT22;4117;53.622;9.958;2023-09-08T02:49:26;16.00;1.00
8152;DHT22;4117;53.622;9.958;2023-09-08T02:51:54;15.90;1.00
8152;DHT22;4117;53.622;9.958;2023-09-08T02:54:21;15.90;1.00
8152;DHT22;4117;53.622;9.958;2023-09-08T02:56:48;15.80;1.00
8152;DHT22;4117;53.622;9.958;2023-09-08T02:59:15;15.80;1.00
8152;DHT22;4117;53.622;9.958;2023-09-08T03:01:42;15.80;1.00
8152;DHT22;4117;53.622;9.958;2023-09-08T03:04:09;15.80;1.00
8152;DHT22;4117;53.622;9.958;2023-09-08T03:06:36;15.80;1.00
8152;DHT22;4117;53.622;9.958;2023-09-08T03:09:04;15.70;1.00
8152;DHT22;4117;53.622;9.958;2023-09-08T03:11:31;15.70;1.00
8152;DHT22;4117;53.622;9.958;2023-09-08T03:13:58;15.70;1.00
8152;DHT22;4117;53.622;9.958;2023-09-08T03:16:25;15.60;1.00
8152;DHT22;4117;53.622;9.958;2023-09-08T03:18:52;15.60;1.00
8152;DHT22;4117;53.622;9.958;2023-09-08T03:21:19;15.60;1.00
8152;DHT22;4117;53.622;9.958;2023-09-08T03:23:46;15.60;1.00
8152;DHT22;4117;53.622;9.958;2023-09-08T03:26:14;15.50;1.00
8152;DHT22;4117;53.622;9.958;2023-09-08T03:28:42;15.50;1.00
8152;DHT22;4117;53.622;9.958;2023-09-08T03:31:09;15.50;1.00
8152;DHT22;4117;53.622;9.958;2023-09-08T03:33:36;15.40;1.00
8152;DHT22;4117;53.622;9.958;2023-09-08T03:36:04;15.40;1.00
8152;DHT22;4117;53.622;9.958;2023-09-08T03:38:31;15.40;1.00
8152;DHT22;4117;53.622;9.958;2023-09-08T03:40:58;15.40;1.00
8152;DHT22;4117;53.622;9.958;2023-09-08T03:43:26;15.30;1.00
8152;DHT22;4117;53.622;9.958;2023-09-08T03:45:53;15.30;1.00
8152;DHT22;4117;53.622;9.958;2023-09-08T03:48:20;15.30;1.00
8152;DHT22;4117;53.622;9.958;2023-09-08T03:50:47;15.30;1.00
8152;DHT22;4117;53.622;9.958;2023-09-08T03:53:14;15.30;1.00
8152;DHT22;4117;53.622;9.958;2023-09-08T03:55:41;15.30;1.00
8152;DHT22;4117;53.622;9.958;2023-09-08T03:58:08;15.20;1.00
8152;DHT22;4117;53.622;9.958;2023-09-08T04:00:36;15.20;1.00
8152;DHT22;4117;53.622;9.958;2023-09-08T04:03:03;15.20;1.00
8152;DHT22;4117;53.622;9.958;2023-09-08T04:05:30;15.20;1.00
8152;DHT22;4117;53.622;9.958;2023-09-08T04:07:57;15.20;1.00
8152;DHT22;4117;53.622;9.958;2023-09-08T04:10:24;15.10;1.00
8152;DHT22;4117;53.622;9.958;2023-09-08T04:12:51;15.10;1.00
8152;DHT22;4117;53.622;9.958;2023-09-08T04:15:18;15.10;1.00
8152;DHT22;4117;53.622;9.958;2023-09-08T04:17:46;15.10;1.00
8152;DHT22;4117;53.622;9.958;2023-09-08T04:20:13;15.10;1.00
8152;DHT22;4117;53.622;9.958;2023-09-08T04:22:43;15.10;1.00
8152;DHT22;4117;53.622;9.958;2023-09-08T04:25:10;15.00;1.00
8152;DHT22;4117;53.622;9.958;2023-09-08T04:27:37;14.90;1.00
8152;DHT22;4117;53.622;9.958;2023-09-08T04:30:04;15.00;1.00
8152;DHT22;4117;53.622;9.958;2023-09-08T04:32:32;15.00;1.00
8152;DHT22;4117;53.622;9.958;2023-09-08T04:35:00;15.00;1.00
8152;DHT22;4117;53.622;9.958;2023-09-08T04:37:27;15.10;1.00
8152;DHT22;4117;53.622;9.958;2023-09-08T04:39:56;15.10;1.00
8152;DHT22;4117;53.622;9.958;2023-09-08T04:42:23;15.10;1.00
8152;DHT22;4117;53.622;9.958;2023-09-08T04:44:50;15.10;1.00
8152;DHT22;4117;53.622;9.958;2023-09-08T04:47:16;15.00;1.00
8152;DHT22;4117;53.622;9.958;2023-09-08T04:49:44;15.00;1.00
8152;DHT22;4117;53.622;9.958;2023-09-08T04:52:12;15.00;1.00
8152;DHT22;4117;53.622;9.958;2023-09-08T04:54:40;15.10;1.00
8152;DHT22;4117;53.622;9.958;2023-09-08T04:57:07;15.10;1.00
8152;DHT22;4117;53.622;9.958;2023-09-08T04:59:34;15.10;1.00
8152;DHT22;4117;53.622;9.958;2023-09-08T05:02:04;15.10;1.00
8152;DHT22;4117;53.622;9.958;2023-09-08T05:04:31;15.00;1.00
8152;DHT22;4117;53.622;9.958;2023-09-08T05:06:58;15.10;1.00
8152;DHT22;4117;53.622;9.958;2023-09-08T05:09:26;15.10;1.00
8152;DHT22;4117;53.622;9.958;2023-09-08T05:11:53;15.10;1.00
8152;DHT22;4117;53.622;9.958;2023-09-08T05:14:20;15.00;1.00
8152;DHT22;4117;53.622;9.958;2023-09-08T05:16:47;15.00;1.00
8152;DHT22;4117;53.622;9.958;2023-09-08T05:19:21;15.20;1.00
8152;DHT22;4117;53.622;9.958;2023-09-08T05:21:50;15.20;1.00
8152;DHT22;4117;53.622;9.958;2023-09-08T05:24:17;15.10;1.00
8152;DHT22;4117;53.622;9.958;2023-09-08T05:26:45;15.20;1.00
8152;DHT22;4117;53.622;9.958;2023-09-08T05:29:12;15.30;1.00
8152;DHT22;4117;53.622;9.958;2023-09-08T06:03:43;16.40;1.00
8152;DHT22;4117;53.622;9.958;2023-09-08T06:06:10;16.40;1.00
8152;DHT22;4117;53.622;9.958;2023-09-08T06:08:37;16.40;1.00
8152;DHT22;4117;53.622;9.958;2023-09-08T06:11:04;16.40;1.00
8152;DHT22;4117;53.622;9.958;2023-09-08T06:13:31;16.50;1.00
8152;DHT22;4117;53.622;9.958;2023-09-08T06:15:58;16.60;1.00
8152;DHT22;4117;53.622;9.958;2023-09-08T06:18:28;16.60;1.00
8152;DHT22;4117;53.622;9.958;2023-09-08T06:20:56;16.50;1.00
8152;DHT22;4117;53.622;9.958;2023-09-08T06:23:23;16.60;1.00
8152;DHT22;4117;53.622;9.958;2023-09-08T06:25:50;16.70;1.00
8152;DHT22;4117;53.622;9.958;2023-09-08T06:28:17;16.70;1.00
8152;DHT22;4117;53.622;9.958;2023-09-08T06:30:44;16.80;1.00
8152;DHT22;4117;53.622;9.958;2023-09-08T06:33:11;17.00;1.00
8152;DHT22;4117;53.622;9.958;2023-09-08T06:35:39;17.20;1.00
8152;DHT22;4117;53.622;9.958;2023-09-08T06:38:06;17.10;1.00
8152;DHT22;4117;53.622;9.958;2023-09-08T06:40:33;17.30;1.00
8152;DHT22;4117;53.622;9.958;2023-09-08T06:43:00;17.40;1.00
8152;DHT22;4117;53.622;9.958;2023-09-08T06:45:27;17.40;1.00
8152;DHT22;4117;53.622;9.958;2023-09-08T06:47:54;17.50;1.00
8152;DHT22;4117;53.622;9.958;2023-09-08T06:50:21;17.60;1.00
8152;DHT22;4117;53.622;9.958;2023-09-08T06:52:50;17.60;1.00
8152;DHT22;4117;53.622;9.958;2023-09-08T06:55:17;17.70;1.00
8152;DHT22;4117;53.622;9.958;2023-09-08T06:57:45;17.80;1.00
8152;DHT22;4117;53.622;9.958;2023-09-08T07:00:13;18.00;1.00
8152;DHT22;4117;53.622;9.958;2023-09-08T07:02:43;18.10;1.00
8152;DHT22;4117;53.622;9.958;2023-09-08T07:05:10;18.00;1.00
8152;DHT22;4117;53.622;9.958;2023-09-08T07:07:37;18.30;1.00
8152;DHT22;4117;53.622;9.958;2023-09-08T07:10:06;18.30;1.00
8152;DHT22;4117;53.622;9.958;2023-09-08T07:12:34;18.40;1.00
8152;DHT22;4117;53.622;9.958;2023-09-08T07:15:01;18.60;1.00
8152;DHT22;4117;53.622;9.958;2023-09-08T07:17:28;18.70;1.00
8152;DHT22;4117;53.622;9.958;2023-09-08T07:19:55;18.70;1.00
8152;DHT22;4117;53.622;9.958;2023-09-08T07:22:22;18.80;1.00
8152;DHT22;4117;53.622;9.958;2023-09-08T07:24:49;18.90;1.00
8152;DHT22;4117;53.622;9.958;2023-09-08T07:27:17;19.00;1.00
8152;DHT22;4117;53.622;9.958;2023-09-08T07:29:45;19.00;1.00
8152;DHT22;4117;53.622;9.958;2023-09-08T07:32:13;19.10;1.00
8152;DHT22;4117;53.622;9.958;2023-09-08T07:34:40;19.20;1.00
8152;DHT22;4117;53.622;9.958;2023-09-08T07:37:07;19.10;1.00
8152;DHT22;4117;53.622;9.958;2023-09-08T07:39:34;19.30;1.00
8152;DHT22;4117;53.622;9.958;2023-09-08T07:42:02;19.30;1.00
8152;DHT22;4117;53.622;9.958;2023-09-08T07:44:30;19.30;1.00
8152;DHT22;4117;53.622;9.958;2023-09-08T07:46:57;19.50;1.00
8152;DHT22;4117;53.622;9.958;2023-09-08T07:49:24;19.60;1.00
8152;DHT22;4117;53.622;9.958;2023-09-08T07:51:51;19.50;1.00
8152;DHT22;4117;53.622;9.958;2023-09-08T07:54:18;19.70;1.00
8152;DHT22;4117;53.622;9.958;2023-09-08T07:56:45;19.70;1.00
8152;DHT22;4117;53.622;9.958;2023-09-08T07:59:12;19.90;1.00
8152;DHT22;4117;53.622;9.958;2023-09-08T08:01:40;20.10;1.00
8152;DHT22;4117;53.622;9.958;2023-09-08T08:04:07;20.00;1.00
8152;DHT22;4117;53.622;9.958;2023-09-08T08:06:35;20.10;1.00
8152;DHT22;4117;53.622;9.958;2023-09-08T08:09:02;20.40;1.00
8152;DHT22;4117;53.622;9.958;2023-09-08T08:11:29;20.40;1.00
8152;DHT22;4117;53.622;9.958;2023-09-08T08:13:56;20.30;1.00
8152;DHT22;4117;53.622;9.958;2023-09-08T08:16:24;20.30;1.00
8152;DHT22;4117;53.622;9.958;2023-09-08T08:18:52;20.50;1.00
8152;DHT22;4117;53.622;9.958;2023-09-08T08:21:19;20.30;1.00
8152;DHT22;4117;53.622;9.958;2023-09-08T08:23:48;20.40;1.00
8152;DHT22;4117;53.622;9.958;2023-09-08T08:26:15;20.40;1.00
8152;DHT22;4117;53.622;9.958;2023-09-08T08:28:43;20.80;1.00
8152;DHT22;4117;53.622;9.958;2023-09-08T08:31:10;20.80;1.00
8152;DHT22;4117;53.622;9.958;2023-09-08T08:33:37;20.70;1.00
8152;DHT22;4117;53.622;9.958;2023-09-08T08:36:06;21.00;1.00
8152;DHT22;4117;53.622;9.958;2023-09-08T08:38:35;21.00;1.00
8152;DHT22;4117;53.622;9.958;2023-09-08T08:41:03;21.00;1.00
8152;DHT22;4117;53.622;9.958;2023-09-08T08:43:31;21.10;1.00
8152;DHT22;4117;53.622;9.958;2023-09-08T08:46:01;21.10;1.00
8152;DHT22;4117;53.622;9.958;2023-09-08T08:48:30;21.30;1.00
8152;DHT22;4117;53.622;9.958;2023-09-08T08:50:58;21.30;1.00
8152;DHT22;4117;53.622;9.958;2023-09-08T08:53:29;21.50;1.00
8152;DHT22;4117;53.622;9.958;2023-09-08T08:55:58;21.60;1.00
8152;DHT22;4117;53.622;9.958;2023-09-08T08:58:27;21.70;1.00
8152;DHT22;4117;53.622;9.958;2023-09-08T09:00:55;21.50;1.00
8152;DHT22;4117;53.622;9.958;2023-09-08T09:03:26;21.50;1.00
8152;DHT22;4117;53.622;9.958;2023-09-08T09:05:53;21.50;1.00
8152;DHT22;4117;53.622;9.958;2023-09-08T09:08:21;21.50;1.00
8152;DHT22;4117;53.622;9.958;2023-09-08T09:10:50;21.70;1.00
8152;DHT22;4117;53.622;9.958;2023-09-08T09:13:20;21.60;1.00
8152;DHT22;4117;53.622;9.958;2023-09-08T09:15:48;22.00;1.00
8152;DHT22;4117;53.622;9.958;2023-09-08T09:18:16;21.90;1.00
8152;DHT22;4117;53.622;9.958;2023-09-08T09:20:53;22.00;1.00
8152;DHT22;4117;53.622;9.958;2023-09-08T09:23:27;22.00;1.00
8152;DHT22;4117;53.622;9.958;2023-09-08T09:25:57;22.00;1.00
8152;DHT22;4117;53.622;9.958;2023-09-08T09:28:24;22.00;1.00
8152;DHT22;4117;53.622;9.958;2023-09-08T09:30:53;22.00;1.00
8152;DHT22;4117;53.622;9.958;2023-09-08T09:33:22;22.20;1.00
8152;DHT22;4117;53.622;9.958;2023-09-08T09:35:50;22.30;1.00
8152;DHT22;4117;53.622;9.958;2023-09-08T09:38:17;22.20;1.00
8152;DHT22;4117;53.622;9.958;2023-09-08T09:40:45;22.40;1.00
8152;DHT22;4117;53.622;9.958;2023-09-08T09:43:15;22.40;1.00
8152;DHT22;4117;53.622;9.958;2023-09-08T09:45:42;22.40;1.00
8152;DHT22;4117;53.622;9.958;2023-09-08T09:48:10;22.60;1.00
8152;DHT22;4117;53.622;9.958;2023-09-08T09:50:41;22.80;1.00
8152;DHT22;4117;53.622;9.958;2023-09-08T09:53:09;22.70;1.00
8152;DHT22;4117;53.622;9.958;2023-09-08T09:55:38;22.80;1.00
8152;DHT22;4117;53.622;9.958;2023-09-08T09:58:08;23.00;1.00
8152;DHT22;4117;53.622;9.958;2023-09-08T10:00:38;23.10;1.00
8152;DHT22;4117;53.622;9.958;2023-09-08T10:03:06;23.20;1.00
8152;DHT22;4117;53.622;9.958;2023-09-08T10:05:37;23.30;1.00
8152;DHT22;4117;53.622;9.958;2023-09-08T10:08:04;23.40;1.00
8152;DHT22;4117;53.622;9.958;2023-09-08T10:10:32;23.30;1.00
8152;DHT22;4117;53.622;9.958;2023-09-08T10:13:03;23.40;1.00
8152;DHT22;4117;53.622;9.958;2023-09-08T10:15:33;23.30;1.00
8152;DHT22;4117;53.622;9.958;2023-09-08T10:18:04;23.50;1.00
8152;DHT22;4117;53.622;9.958;2023-09-08T10:20:33;23.50;1.00
8152;DHT22;4117;53.622;9.958;2023-09-08T10:23:33;23.30;1.00
8152;DHT22;4117;53.622;9.958;2023-09-08T10:26:03;23.30;1.00
8152;DHT22;4117;53.622;9.958;2023-09-08T10:28:32;23.40;1.00
8152;DHT22;4117;53.622;9.958;2023-09-08T10:31:00;23.30;1.00
8152;DHT22;4117;53.622;9.958;2023-09-08T10:33:29;23.60;1.00
8152;DHT22;4117;53.622;9.958;2023-09-08T10:35:57;23.60;1.00
8152;DHT22;4117;53.622;9.958;2023-09-08T10:38:26;23.50;1.00
8152;DHT22;4117;53.622;9.958;2023-09-08T10:41:17;23.80;1.00
8152;DHT22;4117;53.622;9.958;2023-09-08T10:43:42;23.80;1.00
8152;DHT22;4117;53.622;9.958;2023-09-08T10:46:09;23.80;1.00
8152;DHT22;4117;53.622;9.958;2023-09-08T10:48:41;24.00;1.00
8152;DHT22;4117;53.622;9.958;2023-09-08T10:51:12;23.90;1.00
8152;DHT22;4117;53.622;9.958;2023-09-08T10:53:40;23.90;1.00
8152;DHT22;4117;53.622;9.958;2023-09-08T10:56:07;24.20;1.00
8152;DHT22;4117;53.622;9.958;2023-09-08T10:58:36;24.10;1.00
8152;DHT22;4117;53.622;9.958;2023-09-08T11:01:06;24.20;1.00
8152;DHT22;4117;53.622;9.958;2023-09-08T11:03:48;24.10;1.00
8152;DHT22;4117;53.622;9.958;2023-09-08T11:06:17;24.30;1.00
8152;DHT22;4117;53.622;9.958;2023-09-08T11:08:45;24.50;1.00
8152;DHT22;4117;53.622;9.958;2023-09-08T11:11:13;24.50;1.00
8152;DHT22;4117;53.622;9.958;2023-09-08T11:13:40;24.70;1.00
8152;DHT22;4117;53.622;9.958;2023-09-08T11:16:13;24.50;1.00
8152;DHT22;4117;53.622;9.958;2023-09-08T11:18:40;24.70;1.00
8152;DHT22;4117;53.622;9.958;2023-09-08T11:21:09;24.50;1.00
8152;DHT22;4117;53.622;9.958;2023-09-08T11:23:37;24.60;1.00
8152;DHT22;4117;53.622;9.958;2023-09-08T11:26:05;24.70;1.00
8152;DHT22;4117;53.622;9.958;2023-09-08T11:28:34;24.70;1.00
8152;DHT22;4117;53.622;9.958;2023-09-08T11:31:01;24.90;1.00
8152;DHT22;4117;53.622;9.958;2023-09-08T11:33:34;25.00;1.00
8152;DHT22;4117;53.622;9.958;2023-09-08T11:36:11;25.00;1.00
8152;DHT22;4117;53.622;9.958;2023-09-08T11:38:40;25.10;1.00
8152;DHT22;4117;53.622;9.958;2023-09-08T11:41:07;25.10;1.00
8152;DHT22;4117;53.622;9.958;2023-09-08T11:43:34;25.30;1.00
8152;DHT22;4117;53.622;9.958;2023-09-08T11:46:02;25.20;1.00
8152;DHT22;4117;53.622;9.958;2023-09-08T11:48:30;25.40;1.00
8152;DHT22;4117;53.622;9.958;2023-09-08T11:50:57;25.30;1.00
8152;DHT22;4117;53.622;9.958;2023-09-08T11:53:25;25.30;1.00
8152;DHT22;4117;53.622;9.958;2023-09-08T11:55:52;25.20;1.00
8152;DHT22;4117;53.622;9.958;2023-09-08T11:58:20;25.30;1.00
8152;DHT22;4117;53.622;9.958;2023-09-08T12:00:47;25.40;1.00
8152;DHT22;4117;53.622;9.958;2023-09-08T12:03:15;25.60;1.00
8152;DHT22;4117;53.622;9.958;2023-09-08T12:05:44;25.50;1.00
8152;DHT22;4117;53.622;9.958;2023-09-08T12:08:17;25.60;1.00
8152;DHT22;4117;53.622;9.958;2023-09-08T12:10:44;25.60;1.00
8152;DHT22;4117;53.622;9.958;2023-09-08T12:13:11;25.60;1.00
8152;DHT22;4117;53.622;9.958;2023-09-08T12:15:40;25.70;1.00
8152;DHT22;4117;53.622;9.958;2023-09-08T12:18:09;25.80;1.00
8152;DHT22;4117;53.622;9.958;2023-09-08T12:20:38;25.80;1.00
8152;DHT22;4117;53.622;9.958;2023-09-08T12:23:16;25.80;1.00
8152;DHT22;4117;53.622;9.958;2023-09-08T12:25:47;25.80;1.00
8152;DHT22;4117;53.622;9.958;2023-09-08T12:28:16;25.90;1.00
8152;DHT22;4117;53.622;9.958;2023-09-08T12:30:44;26.00;1.00
8152;DHT22;4117;53.622;9.958;2023-09-08T12:33:12;26.00;1.00
8152;DHT22;4117;53.622;9.958;2023-09-08T12:35:42;26.10;1.00
8152;DHT22;4117;53.622;9.958;2023-09-08T12:38:13;26.20;1.00
8152;DHT22;4117;53.622;9.958;2023-09-08T12:40:41;26.20;1.00
8152;DHT22;4117;53.622;9.958;2023-09-08T12:43:08;26.20;1.00
8152;DHT22;4117;53.622;9.958;2023-09-08T12:45:35;26.20;1.00
8152;DHT22;4117;53.622;9.958;2023-09-08T12:48:02;26.30;1.00
8152;DHT22;4117;53.622;9.958;2023-09-08T12:50:29;26.30;1.00
8152;DHT22;4117;53.622;9.958;2023-09-08T12:52:56;26.30;1.00
8152;DHT22;4117;53.622;9.958;2023-09-08T12:55:25;26.40;1.00
8152;DHT22;4117;53.622;9.958;2023-09-08T12:57:52;26.40;1.00
8152;DHT22;4117;53.622;9.958;2023-09-08T13:00:21;26.30;1.00
8152;DHT22;4117;53.622;9.958;2023-09-08T13:02:49;26.40;1.00
8152;DHT22;4117;53.622;9.958;2023-09-08T13:05:16;26.50;1.00
8152;DHT22;4117;53.622;9.958;2023-09-08T13:07:43;26.50;1.00
8152;DHT22;4117;53.622;9.958;2023-09-08T13:10:10;26.40;1.00
8152;DHT22;4117;53.622;9.958;2023-09-08T13:12:38;26.40;1.00
8152;DHT22;4117;53.622;9.958;2023-09-08T13:15:06;26.50;1.00
8152;DHT22;4117;53.622;9.958;2023-09-08T13:17:33;26.60;1.00
8152;DHT22;4117;53.622;9.958;2023-09-08T13:20:01;26.60;1.00
8152;DHT22;4117;53.622;9.958;2023-09-08T13:22:30;26.60;1.00
8152;DHT22;4117;53.622;9.958;2023-09-08T13:24:57;26.60;1.00
8152;DHT22;4117;53.622;9.958;2023-09-08T13:27:24;26.60;1.00
8152;DHT22;4117;53.622;9.958;2023-09-08T13:29:54;26.60;1.00
8152;DHT22;4117;53.622;9.958;2023-09-08T13:32:21;26.60;1.00
8152;DHT22;4117;53.622;9.958;2023-09-08T13:34:50;26.70;1.00
8152;DHT22;4117;53.622;9.958;2023-09-08T13:37:17;26.70;1.00
8152;DHT22;4117;53.622;9.958;2023-09-08T13:39:44;26.70;1.00
8152;DHT22;4117;53.622;9.958;2023-09-08T13:42:11;26.70;1.00
8152;DHT22;4117;53.622;9.958;2023-09-08T13:44:38;26.60;1.00
8152;DHT22;4117;53.622;9.958;2023-09-08T13:47:07;26.70;1.00
8152;DHT22;4117;53.622;9.958;2023-09-08T13:49:34;26.70;1.00
8152;DHT22;4117;53.622;9.958;2023-09-08T13:52:01;26.70;1.00
8152;DHT22;4117;53.622;9.958;2023-09-08T13:54:28;26.80;1.00
8152;DHT22;4117;53.622;9.958;2023-09-08T13:56:59;26.80;1.00
8152;DHT22;4117;53.622;9.958;2023-09-08T13:59:27;26.80;1.00
8152;DHT22;4117;53.622;9.958;2023-09-08T14:01:55;26.90;1.00
8152;DHT22;4117;53.622;9.958;2023-09-08T14:04:24;26.90;1.00
8152;DHT22;4117;53.622;9.958;2023-09-08T14:06:51;27.00;1.00
8152;DHT22;4117;53.622;9.958;2023-09-08T14:09:18;27.00;1.00
8152;DHT22;4117;53.622;9.958;2023-09-08T14:11:45;27.00;1.00
8152;DHT22;4117;53.622;9.958;2023-09-08T14:14:12;27.00;1.00
8152;DHT22;4117;53.622;9.958;2023-09-08T14:16:39;27.10;1.00
8152;DHT22;4117;53.622;9.958;2023-09-08T14:19:06;27.20;1.00
8152;DHT22;4117;53.622;9.958;2023-09-08T14:21:34;27.20;1.00
8152;DHT22;4117;53.622;9.958;2023-09-08T14:24:03;27.20;1.00
8152;DHT22;4117;53.622;9.958;2023-09-08T14:26:30;27.30;1.00
8152;DHT22;4117;53.622;9.958;2023-09-08T14:28:57;27.30;1.00
8152;DHT22;4117;53.622;9.958;2023-09-08T14:31:24;27.30;1.00
8152;DHT22;4117;53.622;9.958;2023-09-08T14:33:51;27.30;1.00
8152;DHT22;4117;53.622;9.958;2023-09-08T14:36:18;27.40;1.00
8152;DHT22;4117;53.622;9.958;2023-09-08T14:38:46;27.40;1.00
8152;DHT22;4117;53.622;9.958;2023-09-08T14:41:13;27.50;1.00
8152;DHT22;4117;53.622;9.958;2023-09-08T14:43:41;27.50;1.00
8152;DHT22;4117;53.622;9.958;2023-09-08T14:46:08;27.50;1.00
8152;DHT22;4117;53.622;9.958;2023-09-08T14:48:35;27.60;1.00
8152;DHT22;4117;53.622;9.958;2023-09-08T14:51:02;27.70;1.00
8152;DHT22;4117;53.622;9.958;2023-09-08T14:53:29;27.80;1.00
8152;DHT22;4117;53.622;9.958;2023-09-08T14:55:58;27.80;1.00
8152;DHT22;4117;53.622;9.958;2023-09-08T14:58:25;27.80;1.00
8152;DHT22;4117;53.622;9.958;2023-09-08T15:00:57;27.90;1.00
8152;DHT22;4117;53.622;9.958;2023-09-08T15:03:25;28.00;1.00
8152;DHT22;4117;53.622;9.958;2023-09-08T15:05:52;28.00;1.00
8152;DHT22;4117;53.622;9.958;2023-09-08T15:08:19;28.00;1.00
8152;DHT22;4117;53.622;9.958;2023-09-08T15:10:46;28.00;1.00
8152;DHT22;4117;53.622;9.958;2023-09-08T15:13:15;28.10;1.00
8152;DHT22;4117;53.622;9.958;2023-09-08T15:15:42;28.10;1.00
8152;DHT22;4117;53.622;9.958;2023-09-08T15:18:09;28.30;1.00
8152;DHT22;4117;53.622;9.958;2023-09-08T15:20:36;28.20;1.00
8152;DHT22;4117;53.622;9.958;2023-09-08T15:23:03;28.20;1.00
8152;DHT22;4117;53.622;9.958;2023-09-08T15:25:30;28.20;1.00
8152;DHT22;4117;53.622;9.958;2023-09-08T15:27:57;28.20;1.00
8152;DHT22;4117;53.622;9.958;2023-09-08T15:30:25;28.20;1.00
8152;DHT22;4117;53.622;9.958;2023-09-08T15:32:52;28.40;1.00
8152;DHT22;4117;53.622;9.958;2023-09-08T15:35:19;28.50;1.00
8152;DHT22;4117;53.622;9.958;2023-09-08T15:37:46;28.30;1.00
8152;DHT22;4117;53.622;9.958;2023-09-08T15:40:13;28.50;1.00
8152;DHT22;4117;53.622;9.958;2023-09-08T15:42:41;28.50;1.00
8152;DHT22;4117;53.622;9.958;2023-09-08T15:45:09;28.30;1.00
8152;DHT22;4117;53.622;9.958;2023-09-08T15:50:06;28.20;1.00
8152;DHT22;4117;53.622;9.958;2023-09-08T15:52:35;28.30;1.00
8152;DHT22;4117;53.622;9.958;2023-09-08T15:55:02;28.40;1.00
8152;DHT22;4117;53.622;9.958;2023-09-08T15:57:30;28.30;1.00
8152;DHT22;4117;53.622;9.958;2023-09-08T15:59:57;28.40;1.00
8152;DHT22;4117;53.622;9.958;2023-09-08T16:02:23;28.20;1.00
8152;DHT22;4117;53.622;9.958;2023-09-08T16:04:52;28.30;1.00
8152;DHT22;4117;53.622;9.958;2023-09-08T16:07:22;28.20;1.00
8152;DHT22;4117;53.622;9.958;2023-09-08T16:09:49;28.20;1.00
8152;DHT22;4117;53.622;9.958;2023-09-08T16:12:16;28.30;1.00
8152;DHT22;4117;53.622;9.958;2023-09-08T16:14:43;28.30;1.00
8152;DHT22;4117;53.622;9.958;2023-09-08T16:17:10;28.30;1.00
8152;DHT22;4117;53.622;9.958;2023-09-08T16:19:38;28.30;1.00
8152;DHT22;4117;53.622;9.958;2023-09-08T16:22:06;28.20;1.00
8152;DHT22;4117;53.622;9.958;2023-09-08T16:24:33;28.20;1.00
8152;DHT22;4117;53.622;9.958;2023-09-08T16:27:00;28.20;1.00
8152;DHT22;4117;53.622;9.958;2023-09-08T16:29:28;28.20;1.00
8152;DHT22;4117;53.622;9.958;2023-09-08T16:31:55;28.20;1.00
8152;DHT22;4117;53.622;9.958;2023-09-08T16:34:22;28.20;1.00
8152;DHT22;4117;53.622;9.958;2023-09-08T16:36:49;28.10;1.00
8152;DHT22;4117;53.622;9.958;2023-09-08T16:39:18;28.00;1.00
8152;DHT22;4117;53.622;9.958;2023-09-08T16:41:45;27.90;1.00
8152;DHT22;4117;53.622;9.958;2023-09-08T16:44:11;27.80;1.00
8152;DHT22;4117;53.622;9.958;2023-09-08T16:46:38;27.70;1.00
8152;DHT22;4117;53.622;9.958;2023-09-08T16:49:05;27.60;1.00
8152;DHT22;4117;53.622;9.958;2023-09-08T16:51:32;27.50;1.00
8152;DHT22;4117;53.622;9.958;2023-09-08T16:53:59;27.40;1.00
8152;DHT22;4117;53.622;9.958;2023-09-08T16:56:27;27.30;1.00